sensor_id;sensor_type;location;lat;lon;timestamp;temperature;humidity
47516;DHT22;33249;51.990;5.840;2023-12-20T00:00:57;6.20;99.90
47516;DHT22;33249;51.990;5.840;2023-12-20T00:03:23;6.20;99.90
47516;DHT22;33249;51.990;5.840;2023-12-20T00:05:50;6.20;99.90
47516;DHT22;33249;51.990;5.840;2023-12-20T00:08:16;6.20;99.90
47516;DHT22;33249;51.990;5.840;2023-12-20T00:10:43;6.20;99.90
47516;DHT22;33249;51.990;5.840;2023-12-20T00:13:09;6.20;99.90
47516;DHT22;33249;51.990;5.840;2023-12-20T00:15:35;6.10;99.90
47516;DHT22;33249;51.990;5.840;2023-12-20T00:18:01;6.20;99.90
47516;DHT22;33249;51.990;5.840;2023-12-20T00:20:27;6.20;99.90
47516;DHT22;33249;51.990;5.840;2023-12-20T00:22:54;6.20;99.90
47516;DHT22;33249;51.990;5.840;2023-12-20T00:25:21;6.20;99.90
47516;DHT22;33249;51.990;5.840;2023-12-20T00:27:47;6.20;99.90
47516;DHT22;33249;51.990;5.840;2023-12-20T00:30:13;6.20;99.90
47516;DHT22;33249;51.990;5.840;2023-12-20T00:32:39;6.10;99.90
47516;DHT22;33249;51.990;5.840;2023-12-20T00:35:07;6.10;99.90
47516;DHT22;33249;51.990;5.840;2023-12-20T00:37:33;6.10;99.90
47516;DHT22;33249;51.990;5.840;2023-12-20T00:39:59;6.00;99.90
47516;DHT22;33249;51.990;5.840;2023-12-20T00:42:25;6.10;99.90
47516;DHT22;33249;51.990;5.840;2023-12-20T00:44:50;6.10;99.90
47516;DHT22;33249;51.990;5.840;2023-12-20T00:47:16;6.00;99.90
47516;DHT22;33249;51.990;5.840;2023-12-20T00:49:42;6.10;99.90
47516;DHT22;33249;51.990;5.840;2023-12-20T00:52:08;6.00;99.90
47516;DHT22;33249;51.990;5.840;2023-12-20T00:54:34;6.00;99.90
47516;DHT22;33249;51.990;5.840;2023-12-20T00:57:00;6.00;99.90
47516;DHT22;33249;51.990;5.840;2023-12-20T00:59:26;6.00;99.90
47516;DHT22;33249;51.990;5.840;2023-12-20T01:01:52;5.90;99.90
47516;DHT22;33249;51.990;5.840;2023-12-20T01:04:18;5.90;99.90
47516;DHT22;33249;51.990;5.840;2023-12-20T01:06:44;5.80;99.90
47516;DHT22;33249;51.990;5.840;2023-12-20T01:09:10;5.80;99.90
47516;DHT22;33249;51.990;5.840;2023-12-20T01:11:36;5.80;99.90
47516;DHT22;33249;51.990;5.840;2023-12-20T01:14:01;5.80;99.90
47516;DHT22;33249;51.990;5.840;2023-12-20T01:16:27;5.70;99.90
47516;DHT22;33249;51.990;5.840;2023-12-20T01:18:53;5.70;99.90
47516;DHT22;33249;51.990;5.840;2023-12-20T01:21:19;5.70;99.90
47516;DHT22;33249;51.990;5.840;2023-12-20T01:23:45;5.80;99.90
47516;DHT22;33249;51.990;5.840;2023-12-20T01:26:11;5.70;99.90
47516;DHT22;33249;51.990;5.840;2023-12-20T01:28:37;5.70;99.90
47516;DHT22;33249;51.990;5.840;2023-12-20T01:31:04;5.70;99.90
47516;DHT22;33249;51.990;5.840;2023-12-20T01:33:29;5.70;99.90
47516;DHT22;33249;51.990;5.840;2023-12-20T01:35:55;5.70;99.90
47516;DHT22;33249;51.990;5.840;2023-12-20T01:38:21;5.70;99.90
47516;DHT22;33249;51.990;5.840;2023-12-20T01:40:47;5.70;99.90
47516;DHT22;33249;51.990;5.840;2023-12-20T01:43:13;5.70;99.90
47516;DHT22;33249;51.990;5.840;2023-12-20T01:45:39;5.70;99.90
47516;DHT22;33249;51.990;5.840;2023-12-20T01:48:07;5.70;99.90
47516;DHT22;33249;51.990;5.840;2023-12-20T01:50:35;5.70;99.90
47516;DHT22;33249;51.990;5.840;2023-12-20T01:53:02;5.70;99.90
47516;DHT22;33249;51.990;5.840;2023-12-20T01:55:30;5.70;99.90
47516;DHT22;33249;51.990;5.840;2023-12-20T01:57:57;5.60;99.90
47516;DHT22;33249;51.990;5.840;2023-12-20T02:00:23;5.70;99.90
47516;DHT22;33249;51.990;5.840;2023-12-20T02:02:50;5.70;99.90
47516;DHT22;33249;51.990;5.840;2023-12-20T02:05:17;5.70;99.90
47516;DHT22;33249;51.990;5.840;2023-12-20T02:07:43;5.70;99.90
47516;DHT22;33249;51.990;5.840;2023-12-20T02:10:09;5.70;99.90
47516;DHT22;33249;51.990;5.840;2023-12-20T02:12:35;5.70;99.90
47516;DHT22;33249;51.990;5.840;2023-12-20T02:15:01;5.80;99.90
47516;DHT22;33249;51.990;5.840;2023-12-20T02:17:28;5.70;99.90
47516;DHT22;33249;51.990;5.840;2023-12-20T02:19:55;5.70;99.90
47516;DHT22;33249;51.990;5.840;2023-12-20T02:22:21;5.70;99.90
47516;DHT22;33249;51.990;5.840;2023-12-20T02:24:47;5.70;99.90
47516;DHT22;33249;51.990;5.840;2023-12-20T02:27:13;5.70;99.90
47516;DHT22;33249;51.990;5.840;2023-12-20T02:29:40;5.60;99.90
47516;DHT22;33249;51.990;5.840;2023-12-20T02:32:06;5.70;99.90
47516;DHT22;33249;51.990;5.840;2023-12-20T02:34:32;5.70;99.90
47516;DHT22;33249;51.990;5.840;2023-12-20T02:36:58;5.70;99.90
47516;DHT22;33249;51.990;5.840;2023-12-20T02:39:24;5.70;99.90
47516;DHT22;33249;51.990;5.840;2023-12-20T02:41:50;5.70;99.90
47516;DHT22;33249;51.990;5.840;2023-12-20T02:44:15;5.70;99.90
47516;DHT22;33249;51.990;5.840;2023-12-20T02:46:41;5.80;99.90
47516;DHT22;33249;51.990;5.840;2023-12-20T02:49:07;5.90;99.90
47516;DHT22;33249;51.990;5.840;2023-12-20T02:51:33;5.90;99.90
47516;DHT22;33249;51.990;5.840;2023-12-20T02:53:59;5.90;99.90
47516;DHT22;33249;51.990;5.840;2023-12-20T02:56:25;5.90;99.90
47516;DHT22;33249;51.990;5.840;2023-12-20T02:58:51;5.90;99.90
47516;DHT22;33249;51.990;5.840;2023-12-20T03:01:17;5.90;99.90
47516;DHT22;33249;51.990;5.840;2023-12-20T03:03:43;6.00;99.90
47516;DHT22;33249;51.990;5.840;2023-12-20T03:06:09;6.00;99.90
47516;DHT22;33249;51.990;5.840;2023-12-20T03:08:35;6.00;99.90
47516;DHT22;33249;51.990;5.840;2023-12-20T03:11:01;6.00;99.90
47516;DHT22;33249;51.990;5.840;2023-12-20T03:13:27;6.00;99.90
47516;DHT22;33249;51.990;5.840;2023-12-20T03:15:53;6.00;99.90
47516;DHT22;33249;51.990;5.840;2023-12-20T03:18:19;6.00;99.90
47516;DHT22;33249;51.990;5.840;2023-12-20T03:20:45;5.90;99.90
47516;DHT22;33249;51.990;5.840;2023-12-20T03:23:14;5.80;99.90
47516;DHT22;33249;51.990;5.840;2023-12-20T03:25:39;5.90;99.90
47516;DHT22;33249;51.990;5.840;2023-12-20T03:28:05;5.90;99.90
47516;DHT22;33249;51.990;5.840;2023-12-20T03:30:31;5.90;99.90
47516;DHT22;33249;51.990;5.840;2023-12-20T03:32:57;5.90;99.90
47516;DHT22;33249;51.990;5.840;2023-12-20T03:35:23;5.90;99.90
47516;DHT22;33249;51.990;5.840;2023-12-20T03:37:49;5.90;99.90
47516;DHT22;33249;51.990;5.840;2023-12-20T03:40:15;5.90;99.90
47516;DHT22;33249;51.990;5.840;2023-12-20T03:42:41;5.90;99.90
47516;DHT22;33249;51.990;5.840;2023-12-20T03:45:07;5.90;99.90
47516;DHT22;33249;51.990;5.840;2023-12-20T03:47:33;5.80;99.90
47516;DHT22;33249;51.990;5.840;2023-12-20T03:49:59;5.80;99.90
47516;DHT22;33249;51.990;5.840;2023-12-20T03:52:25;5.80;99.90
47516;DHT22;33249;51.990;5.840;2023-12-20T03:54:51;5.80;99.90
47516;DHT22;33249;51.990;5.840;2023-12-20T03:57:17;5.80;99.90
47516;DHT22;33249;51.990;5.840;2023-12-20T03:59:42;5.80;99.90
47516;DHT22;33249;51.990;5.840;2023-12-20T04:02:08;5.80;99.90
47516;DHT22;33249;51.990;5.840;2023-12-20T04:04:34;5.80;99.90
47516;DHT22;33249;51.990;5.840;2023-12-20T04:07:00;5.80;99.90
47516;DHT22;33249;51.990;5.840;2023-12-20T04:09:26;5.90;99.90
47516;DHT22;33249;51.990;5.840;2023-12-20T04:11:52;6.00;99.90
47516;DHT22;33249;51.990;5.840;2023-12-20T04:14:18;5.90;99.90
47516;DHT22;33249;51.990;5.840;2023-12-20T04:16:44;5.90;99.90
47516;DHT22;33249;51.990;5.840;2023-12-20T04:19:10;6.00;99.90
47516;DHT22;33249;51.990;5.840;2023-12-20T04:21:36;6.00;99.90
47516;DHT22;33249;51.990;5.840;2023-12-20T04:24:02;6.00;99.90
47516;DHT22;33249;51.990;5.840;2023-12-20T04:26:28;6.00;99.90
47516;DHT22;33249;51.990;5.840;2023-12-20T04:28:55;6.10;99.90
47516;DHT22;33249;51.990;5.840;2023-12-20T04:31:21;6.10;99.90
47516;DHT22;33249;51.990;5.840;2023-12-20T04:33:46;6.10;99.90
47516;DHT22;33249;51.990;5.840;2023-12-20T04:36:12;6.10;99.90
47516;DHT22;33249;51.990;5.840;2023-12-20T04:38:38;6.10;99.90
47516;DHT22;33249;51.990;5.840;2023-12-20T04:41:04;6.10;99.90
47516;DHT22;33249;51.990;5.840;2023-12-20T04:43:30;6.10;99.90
47516;DHT22;33249;51.990;5.840;2023-12-20T04:45:56;6.10;99.90
47516;DHT22;33249;51.990;5.840;2023-12-20T04:48:22;6.20;99.90
47516;DHT22;33249;51.990;5.840;2023-12-20T04:50:48;6.20;99.90
47516;DHT22;33249;51.990;5.840;2023-12-20T04:53:14;6.20;99.90
47516;DHT22;33249;51.990;5.840;2023-12-20T04:55:40;6.20;99.90
47516;DHT22;33249;51.990;5.840;2023-12-20T04:58:06;6.20;99.90
47516;DHT22;33249;51.990;5.840;2023-12-20T05:00:32;6.20;99.90
47516;DHT22;33249;51.990;5.840;2023-12-20T05:02:58;6.20;99.90
47516;DHT22;33249;51.990;5.840;2023-12-20T05:05:23;6.20;99.90
47516;DHT22;33249;51.990;5.840;2023-12-20T05:07:49;6.20;99.90
47516;DHT22;33249;51.990;5.840;2023-12-20T05:10:15;6.20;99.90
47516;DHT22;33249;51.990;5.840;2023-12-20T05:12:41;6.30;99.90
47516;DHT22;33249;51.990;5.840;2023-12-20T05:15:08;6.30;99.90
47516;DHT22;33249;51.990;5.840;2023-12-20T05:17:34;6.30;99.90
47516;DHT22;33249;51.990;5.840;2023-12-20T05:20:00;6.30;99.90
47516;DHT22;33249;51.990;5.840;2023-12-20T05:22:26;6.30;99.90
47516;DHT22;33249;51.990;5.840;2023-12-20T05:24:53;6.30;99.90
47516;DHT22;33249;51.990;5.840;2023-12-20T05:27:19;6.30;99.90
47516;DHT22;33249;51.990;5.840;2023-12-20T05:29:45;6.30;99.90
47516;DHT22;33249;51.990;5.840;2023-12-20T05:32:11;6.30;99.90
47516;DHT22;33249;51.990;5.840;2023-12-20T05:34:37;6.40;99.90
47516;DHT22;33249;51.990;5.840;2023-12-20T05:37:03;6.40;99.90
47516;DHT22;33249;51.990;5.840;2023-12-20T05:39:29;6.40;99.90
47516;DHT22;33249;51.990;5.840;2023-12-20T05:41:56;6.40;99.90
47516;DHT22;33249;51.990;5.840;2023-12-20T05:44:22;6.40;99.90
47516;DHT22;33249;51.990;5.840;2023-12-20T05:46:48;6.50;99.90
47516;DHT22;33249;51.990;5.840;2023-12-20T05:49:14;6.40;99.90
47516;DHT22;33249;51.990;5.840;2023-12-20T05:51:40;6.50;99.90
47516;DHT22;33249;51.990;5.840;2023-12-20T05:54:06;6.50;99.90
47516;DHT22;33249;51.990;5.840;2023-12-20T05:56:32;6.50;99.90
47516;DHT22;33249;51.990;5.840;2023-12-20T05:58:58;6.50;99.90
47516;DHT22;33249;51.990;5.840;2023-12-20T06:01:24;6.50;99.90
47516;DHT22;33249;51.990;5.840;2023-12-20T06:03:50;6.50;99.90
47516;DHT22;33249;51.990;5.840;2023-12-20T06:06:16;6.50;99.90
47516;DHT22;33249;51.990;5.840;2023-12-20T06:08:43;6.50;99.90
47516;DHT22;33249;51.990;5.840;2023-12-20T06:11:09;6.50;99.90
47516;DHT22;33249;51.990;5.840;2023-12-20T06:13:35;6.50;99.90
47516;DHT22;33249;51.990;5.840;2023-12-20T06:16:01;6.50;99.90
47516;DHT22;33249;51.990;5.840;2023-12-20T06:18:27;6.50;99.90
47516;DHT22;33249;51.990;5.840;2023-12-20T06:20:53;6.50;99.90
47516;DHT22;33249;51.990;5.840;2023-12-20T06:23:19;6.50;99.90
47516;DHT22;33249;51.990;5.840;2023-12-20T06:25:45;6.50;99.90
47516;DHT22;33249;51.990;5.840;2023-12-20T06:28:12;6.50;99.90
47516;DHT22;33249;51.990;5.840;2023-12-20T06:30:40;6.60;99.90
47516;DHT22;33249;51.990;5.840;2023-12-20T06:33:06;6.50;99.90
47516;DHT22;33249;51.990;5.840;2023-12-20T06:35:32;6.50;99.90
47516;DHT22;33249;51.990;5.840;2023-12-20T06:37:58;6.50;99.90
47516;DHT22;33249;51.990;5.840;2023-12-20T06:40:24;6.50;99.90
47516;DHT22;33249;51.990;5.840;2023-12-20T06:42:50;6.60;99.90
47516;DHT22;33249;51.990;5.840;2023-12-20T06:45:16;6.50;99.90
47516;DHT22;33249;51.990;5.840;2023-12-20T06:47:42;6.50;99.90
47516;DHT22;33249;51.990;5.840;2023-12-20T06:50:08;6.50;99.90
47516;DHT22;33249;51.990;5.840;2023-12-20T06:52:34;6.50;99.90
47516;DHT22;33249;51.990;5.840;2023-12-20T06:55:01;6.60;99.90
47516;DHT22;33249;51.990;5.840;2023-12-20T06:57:26;6.60;99.90
47516;DHT22;33249;51.990;5.840;2023-12-20T06:59:53;6.60;99.90
47516;DHT22;33249;51.990;5.840;2023-12-20T07:02:19;6.50;99.90
47516;DHT22;33249;51.990;5.840;2023-12-20T07:04:44;6.60;99.90
47516;DHT22;33249;51.990;5.840;2023-12-20T07:07:11;6.60;99.90
47516;DHT22;33249;51.990;5.840;2023-12-20T07:09:37;6.60;99.90
47516;DHT22;33249;51.990;5.840;2023-12-20T07:12:04;6.60;99.90
47516;DHT22;33249;51.990;5.840;2023-12-20T07:14:33;6.60;99.90
47516;DHT22;33249;51.990;5.840;2023-12-20T07:16:59;6.60;99.90
47516;DHT22;33249;51.990;5.840;2023-12-20T07:19:25;6.60;99.90
47516;DHT22;33249;51.990;5.840;2023-12-20T07:21:51;6.60;99.90
47516;DHT22;33249;51.990;5.840;2023-12-20T07:24:16;6.60;99.90
47516;DHT22;33249;51.990;5.840;2023-12-20T07:26:43;6.60;99.90
47516;DHT22;33249;51.990;5.840;2023-12-20T07:29:09;6.60;99.90
47516;DHT22;33249;51.990;5.840;2023-12-20T07:31:35;6.60;99.90
47516;DHT22;33249;51.990;5.840;2023-12-20T07:34:01;6.70;99.90
47516;DHT22;33249;51.990;5.840;2023-12-20T07:36:26;6.60;99.90
47516;DHT22;33249;51.990;5.840;2023-12-20T07:38:52;6.60;99.90
47516;DHT22;33249;51.990;5.840;2023-12-20T07:41:18;6.60;99.90
47516;DHT22;33249;51.990;5.840;2023-12-20T07:43:46;6.60;99.90
47516;DHT22;33249;51.990;5.840;2023-12-20T07:46:12;6.70;99.90
47516;DHT22;33249;51.990;5.840;2023-12-20T07:48:38;6.70;99.90
47516;DHT22;33249;51.990;5.840;2023-12-20T07:51:04;6.70;99.90
47516;DHT22;33249;51.990;5.840;2023-12-20T07:53:32;6.70;99.90
47516;DHT22;33249;51.990;5.840;2023-12-20T07:55:58;6.80;99.90
47516;DHT22;33249;51.990;5.840;2023-12-20T07:58:24;6.80;99.90
47516;DHT22;33249;51.990;5.840;2023-12-20T08:00:50;6.70;99.90
47516;DHT22;33249;51.990;5.840;2023-12-20T08:03:16;6.70;99.90
47516;DHT22;33249;51.990;5.840;2023-12-20T08:05:42;6.70;99.90
47516;DHT22;33249;51.990;5.840;2023-12-20T08:08:08;6.90;99.90
47516;DHT22;33249;51.990;5.840;2023-12-20T08:10:35;6.80;99.90
47516;DHT22;33249;51.990;5.840;2023-12-20T08:13:02;6.80;99.90
47516;DHT22;33249;51.990;5.840;2023-12-20T08:15:28;6.80;99.90
47516;DHT22;33249;51.990;5.840;2023-12-20T08:17:54;6.90;99.90
47516;DHT22;33249;51.990;5.840;2023-12-20T08:20:20;6.90;99.90
47516;DHT22;33249;51.990;5.840;2023-12-20T08:22:46;6.90;99.90
47516;DHT22;33249;51.990;5.840;2023-12-20T08:25:12;7.00;99.90
47516;DHT22;33249;51.990;5.840;2023-12-20T08:27:41;6.90;99.90
47516;DHT22;33249;51.990;5.840;2023-12-20T08:30:14;6.90;99.90
47516;DHT22;33249;51.990;5.840;2023-12-20T08:32:42;7.00;99.90
47516;DHT22;33249;51.990;5.840;2023-12-20T08:35:08;7.00;99.90
47516;DHT22;33249;51.990;5.840;2023-12-20T08:37:34;7.00;99.90
47516;DHT22;33249;51.990;5.840;2023-12-20T08:40:01;6.90;99.90
47516;DHT22;33249;51.990;5.840;2023-12-20T08:42:27;6.90;99.90
47516;DHT22;33249;51.990;5.840;2023-12-20T08:44:57;6.90;99.90
47516;DHT22;33249;51.990;5.840;2023-12-20T08:47:24;6.90;99.90
47516;DHT22;33249;51.990;5.840;2023-12-20T08:49:51;6.90;99.90
47516;DHT22;33249;51.990;5.840;2023-12-20T08:52:17;6.90;99.90
47516;DHT22;33249;51.990;5.840;2023-12-20T08:54:44;6.90;99.90
47516;DHT22;33249;51.990;5.840;2023-12-20T08:57:10;7.00;99.90
47516;DHT22;33249;51.990;5.840;2023-12-20T08:59:36;7.00;99.90
47516;DHT22;33249;51.990;5.840;2023-12-20T09:02:02;7.00;99.90
47516;DHT22;33249;51.990;5.840;2023-12-20T09:04:28;7.00;99.90
47516;DHT22;33249;51.990;5.840;2023-12-20T09:06:55;7.00;99.90
47516;DHT22;33249;51.990;5.840;2023-12-20T09:09:21;7.00;99.90
47516;DHT22;33249;51.990;5.840;2023-12-20T09:11:47;7.00;99.90
47516;DHT22;33249;51.990;5.840;2023-12-20T09:14:15;7.00;99.90
47516;DHT22;33249;51.990;5.840;2023-12-20T09:16:41;7.00;99.90
47516;DHT22;33249;51.990;5.840;2023-12-20T09:19:07;7.00;99.90
47516;DHT22;33249;51.990;5.840;2023-12-20T09:21:33;7.00;99.90
47516;DHT22;33249;51.990;5.840;2023-12-20T10:20:04;7.30;99.90
47516;DHT22;33249;51.990;5.840;2023-12-20T10:22:35;7.20;99.90
47516;DHT22;33249;51.990;5.840;2023-12-20T10:25:01;7.20;99.90
47516;DHT22;33249;51.990;5.840;2023-12-20T10:27:28;7.10;99.90
47516;DHT22;33249;51.990;5.840;2023-12-20T10:29:54;7.20;99.90
47516;DHT22;33249;51.990;5.840;2023-12-20T10:32:26;7.20;99.90
47516;DHT22;33249;51.990;5.840;2023-12-20T10:34:53;7.20;99.90
47516;DHT22;33249;51.990;5.840;2023-12-20T10:37:24;7.20;99.90
47516;DHT22;33249;51.990;5.840;2023-12-20T10:39:51;7.30;99.90
47516;DHT22;33249;51.990;5.840;2023-12-20T10:42:20;7.30;99.90
47516;DHT22;33249;51.990;5.840;2023-12-20T11:24:01;7.70;99.90
47516;DHT22;33249;51.990;5.840;2023-12-20T11:26:31;7.70;99.90
47516;DHT22;33249;51.990;5.840;2023-12-20T11:29:43;7.70;99.90
47516;DHT22;33249;51.990;5.840;2023-12-20T11:31:43;7.70;99.90
47516;DHT22;33249;51.990;5.840;2023-12-20T11:34:13;7.80;99.90
47516;DHT22;33249;51.990;5.840;2023-12-20T11:36:40;7.80;99.90
47516;DHT22;33249;51.990;5.840;2023-12-20T11:39:07;7.80;99.90
47516;DHT22;33249;51.990;5.840;2023-12-20T11:41:34;7.80;99.90
47516;DHT22;33249;51.990;5.840;2023-12-20T11:44:01;7.80;99.90
47516;DHT22;33249;51.990;5.840;2023-12-20T11:46:28;7.80;99.90
47516;DHT22;33249;51.990;5.840;2023-12-20T11:48:54;7.90;99.90
47516;DHT22;33249;51.990;5.840;2023-12-20T11:51:20;7.90;99.90
47516;DHT22;33249;51.990;5.840;2023-12-20T11:53:50;7.90;99.90
47516;DHT22;33249;51.990;5.840;2023-12-20T11:56:17;8.00;99.90
47516;DHT22;33249;51.990;5.840;2023-12-20T11:58:43;8.00;99.90
47516;DHT22;33249;51.990;5.840;2023-12-20T12:01:09;7.90;99.90
47516;DHT22;33249;51.990;5.840;2023-12-20T12:03:35;8.00;99.90
47516;DHT22;33249;51.990;5.840;2023-12-20T12:06:01;8.00;99.90
47516;DHT22;33249;51.990;5.840;2023-12-20T12:08:28;8.00;99.90
47516;DHT22;33249;51.990;5.840;2023-12-20T12:10:56;7.90;99.90
47516;DHT22;33249;51.990;5.840;2023-12-20T12:13:22;8.00;99.90
47516;DHT22;33249;51.990;5.840;2023-12-20T12:15:48;8.00;99.90
47516;DHT22;33249;51.990;5.840;2023-12-20T12:18:16;8.00;99.90
47516;DHT22;33249;51.990;5.840;2023-12-20T12:20:42;8.10;99.90
47516;DHT22;33249;51.990;5.840;2023-12-20T12:23:08;8.10;99.90
47516;DHT22;33249;51.990;5.840;2023-12-20T12:25:35;8.10;99.90
47516;DHT22;33249;51.990;5.840;2023-12-20T12:28:01;8.10;99.90
47516;DHT22;33249;51.990;5.840;2023-12-20T12:30:27;8.10;99.90
47516;DHT22;33249;51.990;5.840;2023-12-20T12:32:53;8.10;99.90
47516;DHT22;33249;51.990;5.840;2023-12-20T12:35:19;8.20;99.90
47516;DHT22;33249;51.990;5.840;2023-12-20T12:37:45;8.20;99.90
47516;DHT22;33249;51.990;5.840;2023-12-20T12:40:12;8.20;99.90
47516;DHT22;33249;51.990;5.840;2023-12-20T12:42:39;8.20;99.90
47516;DHT22;33249;51.990;5.840;2023-12-20T12:45:07;8.30;99.90
47516;DHT22;33249;51.990;5.840;2023-12-20T12:47:33;8.30;99.90
47516;DHT22;33249;51.990;5.840;2023-12-20T12:49:59;8.20;99.90
47516;DHT22;33249;51.990;5.840;2023-12-20T12:52:25;8.20;99.90
47516;DHT22;33249;51.990;5.840;2023-12-20T12:54:53;8.10;99.90
47516;DHT22;33249;51.990;5.840;2023-12-20T12:57:19;8.10;99.90
47516;DHT22;33249;51.990;5.840;2023-12-20T12:59:46;8.10;99.90
47516;DHT22;33249;51.990;5.840;2023-12-20T13:02:12;8.10;99.90
47516;DHT22;33249;51.990;5.840;2023-12-20T13:04:39;8.10;99.90
47516;DHT22;33249;51.990;5.840;2023-12-20T13:07:05;8.10;99.90
47516;DHT22;33249;51.990;5.840;2023-12-20T13:09:31;8.10;99.90
47516;DHT22;33249;51.990;5.840;2023-12-20T13:11:58;8.20;99.90
47516;DHT22;33249;51.990;5.840;2023-12-20T13:14:26;8.30;99.90
47516;DHT22;33249;51.990;5.840;2023-12-20T13:17:00;8.30;99.90
47516;DHT22;33249;51.990;5.840;2023-12-20T13:19:26;8.30;99.90
47516;DHT22;33249;51.990;5.840;2023-12-20T13:21:53;8.30;99.90
47516;DHT22;33249;51.990;5.840;2023-12-20T13:24:19;8.20;99.90
47516;DHT22;33249;51.990;5.840;2023-12-20T13:26:45;8.20;99.90
47516;DHT22;33249;51.990;5.840;2023-12-20T13:29:11;8.20;99.90
47516;DHT22;33249;51.990;5.840;2023-12-20T13:31:37;8.30;99.90
47516;DHT22;33249;51.990;5.840;2023-12-20T13:34:04;8.30;99.90
47516;DHT22;33249;51.990;5.840;2023-12-20T13:36:30;8.20;99.90
47516;DHT22;33249;51.990;5.840;2023-12-20T13:38:56;8.20;99.90
47516;DHT22;33249;51.990;5.840;2023-12-20T13:41:22;8.20;99.90
47516;DHT22;33249;51.990;5.840;2023-12-20T13:43:48;8.20;99.90
47516;DHT22;33249;51.990;5.840;2023-12-20T13:46:14;8.20;99.90
47516;DHT22;33249;51.990;5.840;2023-12-20T13:48:40;8.20;99.90
47516;DHT22;33249;51.990;5.840;2023-12-20T13:51:06;8.20;99.90
47516;DHT22;33249;51.990;5.840;2023-12-20T13:53:32;8.30;99.90
47516;DHT22;33249;51.990;5.840;2023-12-20T13:55:58;8.30;99.90
47516;DHT22;33249;51.990;5.840;2023-12-20T13:58:24;8.30;99.90
47516;DHT22;33249;51.990;5.840;2023-12-20T14:00:50;8.30;99.90
47516;DHT22;33249;51.990;5.840;2023-12-20T14:03:16;8.20;99.90
47516;DHT22;33249;51.990;5.840;2023-12-20T14:05:42;8.30;99.90
47516;DHT22;33249;51.990;5.840;2023-12-20T14:08:08;8.30;99.90
47516;DHT22;33249;51.990;5.840;2023-12-20T14:10:35;8.30;99.90
47516;DHT22;33249;51.990;5.840;2023-12-20T14:13:01;8.20;99.90
47516;DHT22;33249;51.990;5.840;2023-12-20T14:15:28;8.20;99.90
47516;DHT22;33249;51.990;5.840;2023-12-20T14:17:54;8.20;99.90
47516;DHT22;33249;51.990;5.840;2023-12-20T14:20:20;8.20;99.90
47516;DHT22;33249;51.990;5.840;2023-12-20T14:22:46;8.30;99.90
47516;DHT22;33249;51.990;5.840;2023-12-20T14:25:15;8.30;99.90
47516;DHT22;33249;51.990;5.840;2023-12-20T14:27:41;8.30;99.90
47516;DHT22;33249;51.990;5.840;2023-12-20T14:30:09;8.20;99.90
47516;DHT22;33249;51.990;5.840;2023-12-20T14:32:35;8.20;99.90
47516;DHT22;33249;51.990;5.840;2023-12-20T14:35:04;8.20;99.90
47516;DHT22;33249;51.990;5.840;2023-12-20T14:37:30;8.30;99.90
47516;DHT22;33249;51.990;5.840;2023-12-20T14:39:56;8.20;99.90
47516;DHT22;33249;51.990;5.840;2023-12-20T14:42:22;8.20;99.90
47516;DHT22;33249;51.990;5.840;2023-12-20T14:44:48;8.30;99.90
47516;DHT22;33249;51.990;5.840;2023-12-20T14:47:14;8.30;99.90
47516;DHT22;33249;51.990;5.840;2023-12-20T14:49:41;8.30;99.90
47516;DHT22;33249;51.990;5.840;2023-12-20T14:52:08;8.30;99.90
47516;DHT22;33249;51.990;5.840;2023-12-20T14:54:37;8.30;99.90
47516;DHT22;33249;51.990;5.840;2023-12-20T14:57:03;8.30;99.90
47516;DHT22;33249;51.990;5.840;2023-12-20T14:59:29;8.30;99.90
47516;DHT22;33249;51.990;5.840;2023-12-20T15:01:55;8.30;99.90
47516;DHT22;33249;51.990;5.840;2023-12-20T15:04:20;8.30;99.90
47516;DHT22;33249;51.990;5.840;2023-12-20T15:06:55;8.30;99.90
47516;DHT22;33249;51.990;5.840;2023-12-20T15:09:21;8.30;99.90
47516;DHT22;33249;51.990;5.840;2023-12-20T15:11:47;8.30;99.90
47516;DHT22;33249;51.990;5.840;2023-12-20T15:14:13;8.20;99.90
47516;DHT22;33249;51.990;5.840;2023-12-20T15:16:46;8.20;99.90
47516;DHT22;33249;51.990;5.840;2023-12-20T15:19:13;8.20;99.90
47516;DHT22;33249;51.990;5.840;2023-12-20T15:21:39;8.10;99.90
47516;DHT22;33249;51.990;5.840;2023-12-20T15:24:08;8.20;99.90
47516;DHT22;33249;51.990;5.840;2023-12-20T15:26:42;8.20;99.90
47516;DHT22;33249;51.990;5.840;2023-12-20T15:29:09;8.20;99.90
47516;DHT22;33249;51.990;5.840;2023-12-20T15:31:36;8.20;99.90
47516;DHT22;33249;51.990;5.840;2023-12-20T15:34:03;8.10;99.90
47516;DHT22;33249;51.990;5.840;2023-12-20T15:36:29;8.20;99.90
47516;DHT22;33249;51.990;5.840;2023-12-20T15:38:56;8.20;99.90
47516;DHT22;33249;51.990;5.840;2023-12-20T15:41:22;8.20;99.90
47516;DHT22;33249;51.990;5.840;2023-12-20T15:43:49;8.10;99.90
47516;DHT22;33249;51.990;5.840;2023-12-20T15:46:15;8.10;99.90
47516;DHT22;33249;51.990;5.840;2023-12-20T15:48:41;8.10;99.90
47516;DHT22;33249;51.990;5.840;2023-12-20T15:51:08;8.10;99.90
47516;DHT22;33249;51.990;5.840;2023-12-20T15:53:35;8.10;99.90
47516;DHT22;33249;51.990;5.840;2023-12-20T15:56:01;8.10;99.90
47516;DHT22;33249;51.990;5.840;2023-12-20T15:58:27;8.00;99.90
47516;DHT22;33249;51.990;5.840;2023-12-20T16:00:53;8.20;99.90
47516;DHT22;33249;51.990;5.840;2023-12-20T16:03:19;8.00;99.90
47516;DHT22;33249;51.990;5.840;2023-12-20T16:05:49;8.00;99.90
47516;DHT22;33249;51.990;5.840;2023-12-20T16:08:15;8.10;99.90
47516;DHT22;33249;51.990;5.840;2023-12-20T16:10:45;8.10;99.90
47516;DHT22;33249;51.990;5.840;2023-12-20T16:13:11;8.10;99.90
47516;DHT22;33249;51.990;5.840;2023-12-20T16:15:40;8.00;99.90
47516;DHT22;33249;51.990;5.840;2023-12-20T16:18:11;8.00;99.90
47516;DHT22;33249;51.990;5.840;2023-12-20T16:20:37;8.00;99.90
47516;DHT22;33249;51.990;5.840;2023-12-20T16:23:04;7.90;99.90
47516;DHT22;33249;51.990;5.840;2023-12-20T16:25:30;7.90;99.90
47516;DHT22;33249;51.990;5.840;2023-12-20T16:27:56;7.90;99.90
47516;DHT22;33249;51.990;5.840;2023-12-20T16:30:26;7.90;99.90
47516;DHT22;33249;51.990;5.840;2023-12-20T16:32:52;7.90;99.90
47516;DHT22;33249;51.990;5.840;2023-12-20T16:35:19;7.90;99.90
47516;DHT22;33249;51.990;5.840;2023-12-20T16:37:45;7.90;99.90
47516;DHT22;33249;51.990;5.840;2023-12-20T16:40:11;7.90;99.90
47516;DHT22;33249;51.990;5.840;2023-12-20T16:42:37;7.80;99.90
47516;DHT22;33249;51.990;5.840;2023-12-20T16:45:03;7.90;99.90
47516;DHT22;33249;51.990;5.840;2023-12-20T16:47:29;7.80;99.90
47516;DHT22;33249;51.990;5.840;2023-12-20T16:49:55;7.90;99.90
47516;DHT22;33249;51.990;5.840;2023-12-20T16:52:21;7.80;99.90
47516;DHT22;33249;51.990;5.840;2023-12-20T16:54:47;7.90;99.90
47516;DHT22;33249;51.990;5.840;2023-12-20T16:57:13;7.80;99.90
47516;DHT22;33249;51.990;5.840;2023-12-20T16:59:42;7.80;99.90
47516;DHT22;33249;51.990;5.840;2023-12-20T17:02:09;7.80;99.90
47516;DHT22;33249;51.990;5.840;2023-12-20T17:04:35;7.90;99.90
47516;DHT22;33249;51.990;5.840;2023-12-20T17:07:01;7.90;99.90
47516;DHT22;33249;51.990;5.840;2023-12-20T17:09:28;7.80;99.90
47516;DHT22;33249;51.990;5.840;2023-12-20T17:11:54;7.90;99.90
47516;DHT22;33249;51.990;5.840;2023-12-20T17:14:20;7.90;99.90